Terminal Aerodrome Forecast
Issued by NWS

Home | Current Version | Previous Version | Text Only | Print | Product List | Glossary On
Versions: 1 2 3 4 5 6 7 8 9 10 11 12 13 14 15 16 17 18 19 20 21 22 23 24 25
000
FTUS46 KSGX 292032 AAA
TAFSAN
TAF AMD
KSAN 292032Z 2921/3024 33008KT P6SM FEW030 FEW100 SCT250
     FM300200 30004KT P6SM SKC
     FM301000 VRB04KT P6SM SCT007
      TEMPO 3011/3015 2SM BR BKN005
     FM301900 28010KT P6SM SKC=

USA.gov is the U.S. government's official web portal to all federal, state and local government web resources and services.